KIAG/IAG METAR and TAF weather

Enter ICAO airport designator
Station Type Date Time Source
KIAG METAR 2024/02/21 00:53 UTC NOAA

KIAG 210053Z 09005KT 10SM CLR M01/M09 A3031 RMK AO2 SLP283 T10061089


Station Type Date Time Source
KIAG Decoded METAR 2024/02/21 00:53 UTC NOAA

NIAGARA FALLS INTERNATIONAL AIRPORT, NY, United States (KIAG) 43-07N 078-56W 182M
Feb 20, 2024 - 07:53 PM EST / 2024.02.21 0053 UTC
Wind: from the E (090 degrees) at 6 MPH (5 KT):0
Visibility: 10 mile(s):0
Sky conditions: clear
Temperature: 30.9 F (-0.6 C)
Windchill: 24 F (-4 C):1
Dew Point: 16.0 F (-8.9 C)
Relative Humidity: 53%
Pressure (altimeter): 30.31 in. Hg (1026 hPa)
ob: KIAG 210053Z 09005KT 10SM CLR M01/M09 A3031 RMK AO2 SLP283 T10061089
cycle: 1

Station Type Date Time Source
KIAG TAF 2024/02/20 18:28 UTC NOAA

TAF KIAG 201726Z 2018/2118 09004KT P6SM SKC
FM210400 15006KT P6SM SKC
FM210900 18008KT P6SM SKC
FM211500 19012G18KT P6SM SCT250

Example: see airport list